createdAt,value
2019-03-13T00:01:23.842Z,31.83
2019-03-13T00:03:51.711Z,46.20
2019-03-13T00:06:19.651Z,28.30
2019-03-13T00:08:47.623Z,29.70
2019-03-13T00:11:15.382Z,27.03
2019-03-13T00:13:43.150Z,21.63
2019-03-13T00:16:11.330Z,27.97
2019-03-13T00:18:39.191Z,31.63
2019-03-13T00:21:07.066Z,33.97
2019-03-13T00:23:34.849Z,25.97
2019-03-13T00:26:02.589Z,33.03
2019-03-13T00:28:30.293Z,23.33
2019-03-13T00:30:57.948Z,28.37
2019-03-13T00:33:25.784Z,30.73
2019-03-13T00:35:53.556Z,26.37
2019-03-13T00:38:21.336Z,17.90
2019-03-13T00:40:49.398Z,24.20
2019-03-13T00:43:17.271Z,22.23
2019-03-13T00:45:45.338Z,31.33
2019-03-13T00:48:13.100Z,19.97
2019-03-13T00:50:40.874Z,28.27
2019-03-13T00:53:08.638Z,25.60
2019-03-13T00:55:36.409Z,26.47
2019-03-13T00:58:04.270Z,20.27
2019-03-13T01:00:50.061Z,27.30
2019-03-13T01:03:19.357Z,22.10
2019-03-13T01:05:57.784Z,19.07
2019-03-13T01:08:25.936Z,21.23
2019-03-13T01:10:53.733Z,25.47
2019-03-13T01:13:21.488Z,20.10
2019-03-13T01:15:49.354Z,17.23
2019-03-13T01:18:17.113Z,21.20
2019-03-13T01:20:44.880Z,21.23
2019-03-13T01:23:12.761Z,24.90
2019-03-13T01:25:40.441Z,17.87
2019-03-13T01:28:08.189Z,15.53
2019-03-13T01:30:46.701Z,20.17
2019-03-13T01:33:16.108Z,21.90
2019-03-13T01:35:45.417Z,20.33
2019-03-13T01:38:13.378Z,19.77
2019-03-13T01:40:41.247Z,19.03
2019-03-13T01:43:08.919Z,25.60
2019-03-13T01:45:36.779Z,28.43
2019-03-13T01:48:04.647Z,24.27
2019-03-13T01:50:32.418Z,24.67
2019-03-13T01:53:00.055Z,26.93
2019-03-13T01:55:27.842Z,18.57
2019-03-13T01:57:55.604Z,21.03
2019-03-13T02:00:23.384Z,22.20
2019-03-13T02:02:51.140Z,22.17
2019-03-13T02:05:18.767Z,22.37
2019-03-13T02:07:46.407Z,16.40
2019-03-13T02:10:14.228Z,22.03
2019-03-13T02:12:41.919Z,17.00
2019-03-13T02:15:14.164Z,17.27
2019-03-13T02:17:42.032Z,19.10
2019-03-13T02:20:10.218Z,20.00
2019-03-13T02:22:37.871Z,17.70
2019-03-13T02:25:06.866Z,17.17
2019-03-13T02:27:34.739Z,22.83
2019-03-13T02:30:02.607Z,19.60
2019-03-13T02:32:30.369Z,20.30
2019-03-13T02:34:58.139Z,18.30
2019-03-13T02:37:26.112Z,16.47
2019-03-13T02:39:53.770Z,13.87
2019-03-13T02:42:21.533Z,15.20
2019-03-13T02:44:49.301Z,16.63
2019-03-13T02:47:18.872Z,16.70
2019-03-13T02:49:46.580Z,11.90
2019-03-13T02:52:14.446Z,12.07
2019-03-13T02:54:42.101Z,10.50
2019-03-13T02:57:09.749Z,11.47
2019-03-13T02:59:37.539Z,11.97
2019-03-13T03:02:12.895Z,11.23
2019-03-13T03:04:40.752Z,8.90
2019-03-13T03:07:11.367Z,12.93
2019-03-13T03:09:37.932Z,9.83
2019-03-13T03:12:05.681Z,6.87
2019-03-13T03:14:33.457Z,8.07
2019-03-13T03:17:01.209Z,7.63
2019-03-13T03:19:28.997Z,7.10
2019-03-13T03:21:56.868Z,8.03
2019-03-13T03:24:24.824Z,7.13
2019-03-13T03:26:52.498Z,7.47
2019-03-13T03:29:20.757Z,4.90
2019-03-13T03:31:48.525Z,7.23
2019-03-13T03:34:16.282Z,6.67
2019-03-13T03:36:44.057Z,7.23
2019-03-13T03:39:11.829Z,7.93
2019-03-13T03:41:39.696Z,6.83
2019-03-13T03:44:07.502Z,6.20
2019-03-13T03:46:35.435Z,7.03
2019-03-13T03:49:03.200Z,7.83
2019-03-13T03:51:30.954Z,6.93
2019-03-13T03:53:58.736Z,6.47
2019-03-13T03:56:26.733Z,6.10
2019-03-13T03:58:54.516Z,8.20
2019-03-13T04:01:22.440Z,6.27
2019-03-13T04:03:50.201Z,7.40
2019-03-13T04:06:18.023Z,9.13
2019-03-13T04:08:45.838Z,8.07
2019-03-13T04:11:13.708Z,6.67
2019-03-13T04:13:44.537Z,10.17
2019-03-13T04:16:10.873Z,8.33
2019-03-13T04:18:38.653Z,6.93
2019-03-13T04:21:06.283Z,9.50
2019-03-13T04:23:34.179Z,8.30
2019-03-13T04:26:02.004Z,5.27
2019-03-13T04:28:29.696Z,7.97
2019-03-13T04:30:57.485Z,8.27
2019-03-13T04:33:28.092Z,8.43
2019-03-13T04:35:54.654Z,8.10
2019-03-13T04:38:22.401Z,10.30
2019-03-13T04:40:50.171Z,6.97
2019-03-13T04:43:17.841Z,6.23
2019-03-13T04:45:45.708Z,9.70
2019-03-13T04:48:13.468Z,6.90
2019-03-13T04:50:41.235Z,7.83
2019-03-13T04:53:09.017Z,7.33
2019-03-13T04:55:36.874Z,6.10
2019-03-13T04:58:04.504Z,11.37
2019-03-13T05:00:32.406Z,7.67
2019-03-13T05:03:00.274Z,6.30
2019-03-13T05:05:32.114Z,8.30
2019-03-13T05:07:59.899Z,7.80
2019-03-13T05:10:27.545Z,7.57
2019-03-13T05:12:55.251Z,8.23
2019-03-13T05:15:22.989Z,7.13
2019-03-13T05:17:50.863Z,8.87
2019-03-13T05:20:18.503Z,7.50
2019-03-13T05:22:46.377Z,13.57
2019-03-13T05:25:14.178Z,6.17
2019-03-13T05:27:41.916Z,9.00
2019-03-13T05:30:09.895Z,8.23
2019-03-13T05:32:37.644Z,8.57
2019-03-13T05:35:05.816Z,10.47
2019-03-13T05:37:33.598Z,7.03
2019-03-13T05:40:01.368Z,9.43
2019-03-13T05:42:29.128Z,7.20
2019-03-13T05:44:56.903Z,8.00
2019-03-13T05:47:24.548Z,6.27
2019-03-13T05:49:52.434Z,8.10
2019-03-13T05:52:20.198Z,9.87
2019-03-13T05:54:47.966Z,5.87
2019-03-13T05:57:15.725Z,9.67
2019-03-13T05:59:43.600Z,6.83
2019-03-13T06:02:11.469Z,7.27
2019-03-13T06:04:39.229Z,7.83
2019-03-13T06:07:06.876Z,9.50
2019-03-13T06:09:34.648Z,6.43
2019-03-13T06:12:02.324Z,8.10
2019-03-13T06:14:29.995Z,8.40
2019-03-13T06:16:57.653Z,7.10
2019-03-13T06:19:25.272Z,6.87
2019-03-13T06:21:53.089Z,10.30
2019-03-13T06:24:20.715Z,10.37
2019-03-13T06:26:48.402Z,10.37
2019-03-13T06:29:16.280Z,7.23
2019-03-13T06:31:44.045Z,6.50
2019-03-13T06:34:11.827Z,11.50
2019-03-13T06:36:39.537Z,8.07
2019-03-13T06:39:07.237Z,7.53
2019-03-13T06:41:35.110Z,7.43
2019-03-13T06:44:02.872Z,7.13
2019-03-13T06:46:30.636Z,8.37
2019-03-13T06:48:58.301Z,10.67
2019-03-13T06:51:26.068Z,11.17
2019-03-13T06:53:53.937Z,7.13
2019-03-13T06:56:21.807Z,10.23
2019-03-13T06:58:57.056Z,8.97
2019-03-13T07:01:41.604Z,7.87
2019-03-13T07:04:10.915Z,11.27
2019-03-13T07:06:43.062Z,7.00
2019-03-13T07:09:12.592Z,8.70
2019-03-13T07:11:48.130Z,13.17
2019-03-13T07:14:26.540Z,9.83
2019-03-13T07:17:01.583Z,9.47
2019-03-13T07:19:33.965Z,81.37
2019-03-13T07:22:06.245Z,8.33
2019-03-13T07:24:35.448Z,9.30
2019-03-13T07:27:22.956Z,10.43
2019-03-13T07:29:58.607Z,8.50
2019-03-13T07:32:36.859Z,8.97
2019-03-13T07:35:25.371Z,12.40
2019-03-13T07:37:54.674Z,6.73
2019-03-13T07:40:27.059Z,8.67
2019-03-13T07:42:56.558Z,7.83
2019-03-13T07:45:28.249Z,9.27
2019-03-13T07:47:57.517Z,9.53
2019-03-13T07:50:36.047Z,9.13
2019-03-13T07:53:08.309Z,14.07
2019-03-13T07:55:54.109Z,10.47
2019-03-13T07:58:32.213Z,9.93
2019-03-13T08:01:07.547Z,10.80
2019-03-13T08:03:45.763Z,11.93
2019-03-13T08:06:17.929Z,9.47
2019-03-13T08:08:53.170Z,10.80
2019-03-13T08:11:25.349Z,9.60
2019-03-13T08:13:54.748Z,10.80
2019-03-13T08:16:26.806Z,12.53
2019-03-13T08:19:11.486Z,9.77
2019-03-13T08:21:55.807Z,10.27
2019-03-13T08:24:25.334Z,10.70
2019-03-13T08:27:09.784Z,9.77
2019-03-13T08:29:47.896Z,10.70
2019-03-13T08:32:26.102Z,11.53
2019-03-13T08:35:07.492Z,10.70
2019-03-13T08:37:45.687Z,11.27
2019-03-13T08:40:31.693Z,13.90
2019-03-13T08:43:10.005Z,11.00
2019-03-13T08:45:48.738Z,14.83
2019-03-13T08:48:18.347Z,10.80
2019-03-13T08:50:59.833Z,10.43
2019-03-13T08:53:29.343Z,11.27
2019-03-13T08:56:01.300Z,8.97
2019-03-13T08:58:39.306Z,12.00
2019-03-13T09:01:14.142Z,9.07
2019-03-13T09:03:46.207Z,10.07
2019-03-13T09:06:34.043Z,9.37
2019-03-13T09:09:15.432Z,19.53
2019-03-13T09:11:47.788Z,11.23
2019-03-13T09:14:17.221Z,15.50
2019-03-13T09:17:04.949Z,14.77
2019-03-13T09:19:50.916Z,42.10
2019-03-13T09:22:32.607Z,11.87
2019-03-13T09:25:12.365Z,13.57
2019-03-13T09:27:57.239Z,13.43
2019-03-13T09:30:45.176Z,11.47
2019-03-13T09:33:23.372Z,12.47
2019-03-13T09:35:55.722Z,18.50
2019-03-13T09:38:28.143Z,23.43
2019-03-13T09:41:15.719Z,30.77
2019-03-13T09:43:54.395Z,12.93
2019-03-13T09:46:23.637Z,237.93
2019-03-13T09:48:52.988Z,16.93
2019-03-13T09:51:24.788Z,43.70
2019-03-13T09:54:09.530Z,156.77
2019-03-13T09:56:38.772Z,25.43
2019-03-13T09:59:17.036Z,18.67
2019-03-13T10:02:01.063Z,141.17
2019-03-13T10:04:33.455Z,28.90
2019-03-13T10:07:02.857Z,33.80
2019-03-13T10:09:48.748Z,275.00
2019-03-13T10:12:34.542Z,53.80
2019-03-13T10:15:20.439Z,29.93
2019-03-13T10:18:06.523Z,13.47
2019-03-13T10:20:38.813Z,73.10
2019-03-13T10:23:08.207Z,12.77
2019-03-13T10:25:37.712Z,17.47
2019-03-13T10:28:06.946Z,17.00
2019-03-13T10:30:42.053Z,20.20
2019-03-13T10:33:11.347Z,17.20
2019-03-13T10:35:40.760Z,15.33
2019-03-13T10:38:14.450Z,13.77
2019-03-13T10:40:46.454Z,17.30
2019-03-13T10:43:25.057Z,12.23
2019-03-13T10:45:54.548Z,15.53
2019-03-13T10:48:26.529Z,11.50
2019-03-13T10:50:59.096Z,17.50
2019-03-13T10:53:34.624Z,15.37
2019-03-13T10:56:20.526Z,13.20
2019-03-13T10:58:49.831Z,16.30
2019-03-13T11:01:22.295Z,14.77
2019-03-13T11:04:04.109Z,10.37
2019-03-13T11:06:54.095Z,12.13
2019-03-13T11:09:13.562Z,13.80
2019-03-13T11:11:55.157Z,13.73
2019-03-13T11:14:39.612Z,10.20
2019-03-13T11:17:11.574Z,10.80
2019-03-13T11:19:43.537Z,17.00
2019-03-13T11:22:29.495Z,14.60
2019-03-13T11:25:01.490Z,11.03
2019-03-13T11:27:36.653Z,14.43
2019-03-13T11:30:06.814Z,15.27
2019-03-13T11:32:42.071Z,11.23
2019-03-13T11:35:20.521Z,12.97
2019-03-13T11:37:49.921Z,7.87
2019-03-13T11:40:35.491Z,8.73
2019-03-13T11:43:21.406Z,8.00
2019-03-13T11:45:50.800Z,8.60
2019-03-13T11:48:20.020Z,9.73
2019-03-13T11:51:06.196Z,7.20
2019-03-13T11:53:35.602Z,10.70
2019-03-13T11:56:04.823Z,12.70
2019-03-13T11:58:52.433Z,7.47
2019-03-13T12:01:30.753Z,7.47
2019-03-13T12:04:08.939Z,5.80
2019-03-13T12:06:38.260Z,7.70
2019-03-13T12:09:13.814Z,9.40
2019-03-13T12:11:43.096Z,6.87
2019-03-13T12:14:19.072Z,14.03
2019-03-13T12:16:51.346Z,7.10
2019-03-13T12:19:23.511Z,5.80
2019-03-13T12:21:52.817Z,8.40
2019-03-13T12:24:25.081Z,11.00
2019-03-13T12:26:57.175Z,5.40
2019-03-13T12:29:29.426Z,7.90
2019-03-13T12:31:58.642Z,7.87
2019-03-13T12:34:27.903Z,8.37
2019-03-13T12:37:15.659Z,6.33
2019-03-13T12:40:01.649Z,7.13
2019-03-13T12:42:36.667Z,8.90
2019-03-13T12:45:20.619Z,8.80
2019-03-13T12:47:50.041Z,6.67
2019-03-13T12:50:34.081Z,8.70
2019-03-13T12:53:03.086Z,6.90
2019-03-13T12:55:35.145Z,5.67
2019-03-13T12:58:16.525Z,8.10
2019-03-13T13:00:48.800Z,6.07
2019-03-13T13:03:23.693Z,6.20
2019-03-13T13:05:55.818Z,6.67
2019-03-13T13:08:41.916Z,6.30
2019-03-13T13:11:13.925Z,4.83
2019-03-13T13:13:58.425Z,7.83
2019-03-13T13:16:30.737Z,5.30
2019-03-13T13:18:58.443Z,5.27
2019-03-13T13:21:26.212Z,4.13
2019-03-13T13:23:53.992Z,6.13
2019-03-13T13:26:21.871Z,5.00
2019-03-13T13:28:49.589Z,5.50
2019-03-13T13:31:17.293Z,8.63
2019-03-13T13:33:45.060Z,5.53
2019-03-13T13:36:12.814Z,5.27
2019-03-13T13:38:40.512Z,10.13
2019-03-13T13:41:08.238Z,8.43
2019-03-13T13:43:35.921Z,6.23
2019-03-13T13:46:12.083Z,8.37
2019-03-13T13:48:39.937Z,6.50
2019-03-13T13:51:07.576Z,6.03
2019-03-13T13:53:35.383Z,6.07
2019-03-13T13:56:03.258Z,5.87
2019-03-13T13:58:31.117Z,5.67
2019-03-13T14:00:59.293Z,6.60
2019-03-13T14:03:26.935Z,7.97
2019-03-13T14:05:54.571Z,7.87
2019-03-13T14:08:22.471Z,4.83
2019-03-13T14:10:50.356Z,5.33
2019-03-13T14:13:18.424Z,5.77
2019-03-13T14:15:46.059Z,8.57
2019-03-13T14:18:13.753Z,6.67
2019-03-13T14:20:41.503Z,7.20
2019-03-13T14:23:09.390Z,5.07
2019-03-13T14:25:37.267Z,5.57
2019-03-13T14:28:05.130Z,9.23
2019-03-13T14:30:33.059Z,6.43
2019-03-13T14:33:00.740Z,5.83
2019-03-13T14:35:28.546Z,3.87
2019-03-13T14:37:56.404Z,3.53
2019-03-13T14:40:24.165Z,13.07
2019-03-13T14:42:51.944Z,3.70
2019-03-13T14:45:19.892Z,5.50
2019-03-13T14:47:47.643Z,6.30
2019-03-13T14:50:21.773Z,6.90
2019-03-13T14:52:49.644Z,4.83
2019-03-13T14:55:17.914Z,17.57
2019-03-13T14:57:45.697Z,449.87
2019-03-13T15:00:17.661Z,11.47
2019-03-13T15:02:45.381Z,130.77
2019-03-13T15:05:13.290Z,105.73
2019-03-13T15:10:51.196Z,6.23
2019-03-13T15:13:18.963Z,8.53
2019-03-13T15:15:46.652Z,23.20
2019-03-13T15:18:14.387Z,8.27
2019-03-13T15:20:42.172Z,18.47
2019-03-13T15:23:09.821Z,9.10
2019-03-13T15:25:37.597Z,76.70
2019-03-13T15:28:05.786Z,448.70
2019-03-13T15:30:33.851Z,75.30
2019-03-13T15:33:01.720Z,375.90
2019-03-13T15:35:29.509Z,378.10
2019-03-13T15:37:57.137Z,414.87
2019-03-13T15:40:24.909Z,439.10
2019-03-13T15:42:53.209Z,156.23
2019-03-13T15:45:24.527Z,183.73
2019-03-13T15:47:52.292Z,72.50
2019-03-13T15:50:20.176Z,281.27
2019-03-13T15:52:47.948Z,382.00
2019-03-13T15:55:16.435Z,476.13
2019-03-13T15:57:44.179Z,501.00
2019-03-13T16:00:16.117Z,291.57
2019-03-13T16:02:43.816Z,83.23
2019-03-13T16:05:11.592Z,109.67
2019-03-13T16:07:39.356Z,78.30
2019-03-13T16:10:08.739Z,138.03
2019-03-13T16:12:36.409Z,130.00
2019-03-13T16:15:05.418Z,110.17
2019-03-13T16:17:33.180Z,81.80
2019-03-13T16:20:00.944Z,41.33
2019-03-13T16:22:28.714Z,83.23
2019-03-13T16:24:56.460Z,33.43
2019-03-13T16:27:24.184Z,26.17
2019-03-13T16:29:52.014Z,39.97
2019-03-13T16:32:20.491Z,14.93
2019-03-13T16:34:48.364Z,8.13
2019-03-13T16:37:16.234Z,7.40
2019-03-13T16:39:43.892Z,15.70
2019-03-13T16:42:11.665Z,8.70
2019-03-13T16:44:39.424Z,7.27
2019-03-13T16:47:07.055Z,14.97
2019-03-13T16:49:34.739Z,9.30
2019-03-13T16:52:02.510Z,8.77
2019-03-13T16:54:30.281Z,9.60
2019-03-13T16:56:58.156Z,9.17
2019-03-13T16:59:25.917Z,30.17
2019-03-13T17:01:54.093Z,15.27
2019-03-13T17:04:21.728Z,12.83
2019-03-13T17:06:49.526Z,9.60
2019-03-13T17:09:17.395Z,22.40
2019-03-13T17:11:45.020Z,28.70
2019-03-13T17:14:12.721Z,13.63
2019-03-13T17:16:40.592Z,16.83
2019-03-13T17:19:08.458Z,22.40
2019-03-13T17:21:36.109Z,26.13
2019-03-13T17:24:04.399Z,449.80
2019-03-13T17:26:32.267Z,263.13
2019-03-13T17:29:00.035Z,477.97
2019-03-13T17:31:27.792Z,134.67
2019-03-13T17:33:55.575Z,466.03
2019-03-13T17:36:23.430Z,176.13
2019-03-13T17:38:51.184Z,466.60
2019-03-13T17:41:18.977Z,170.20
2019-03-13T17:43:46.833Z,219.17
2019-03-13T17:46:14.585Z,18.23
2019-03-13T17:48:42.289Z,24.37
2019-03-13T17:51:10.025Z,28.07
2019-03-13T17:53:37.790Z,19.50
2019-03-13T17:56:05.451Z,18.43
2019-03-13T17:58:33.144Z,25.00
2019-03-13T18:01:00.999Z,20.53
2019-03-13T18:03:28.755Z,99.30
2019-03-13T18:05:56.518Z,93.03
2019-03-13T18:08:24.390Z,79.60
2019-03-13T18:10:52.080Z,370.37
2019-03-13T18:13:19.917Z,356.90
2019-03-13T18:15:47.690Z,109.90
2019-03-13T18:18:15.556Z,45.40
2019-03-13T18:20:43.332Z,132.70
2019-03-13T18:23:11.088Z,222.23
2019-03-13T18:25:38.956Z,374.73
2019-03-13T18:28:06.922Z,507.40
2019-03-13T18:30:35.203Z,725.47
2019-03-13T18:33:02.968Z,346.47
2019-03-13T18:35:30.836Z,391.47
2019-03-13T18:37:58.609Z,36.83
2019-03-13T18:40:26.473Z,11.33
2019-03-13T18:42:54.248Z,12.93
2019-03-13T18:45:28.672Z,17.70
2019-03-13T18:47:56.541Z,13.27
2019-03-13T18:50:24.499Z,19.93
2019-03-13T18:52:52.276Z,19.10
2019-03-13T18:55:21.465Z,15.73
2019-03-13T18:57:50.757Z,16.40
2019-03-13T19:00:25.185Z,14.53
2019-03-13T19:02:53.359Z,17.27
2019-03-13T19:05:21.125Z,17.70
2019-03-13T19:07:48.893Z,14.40
2019-03-13T19:10:23.940Z,22.00
2019-03-13T19:12:51.898Z,20.73
2019-03-13T19:15:20.405Z,26.90
2019-03-13T19:17:48.146Z,25.17
2019-03-13T19:20:16.920Z,26.67
2019-03-13T19:22:44.810Z,25.63
2019-03-13T19:25:13.082Z,21.67
2019-03-13T19:27:40.957Z,23.43
2019-03-13T19:33:19.087Z,26.43
2019-03-13T19:35:46.955Z,28.50
2019-03-13T19:38:15.117Z,24.43
2019-03-13T19:40:42.853Z,24.43
2019-03-13T19:43:10.660Z,24.80
2019-03-13T19:45:39.648Z,21.37
2019-03-13T19:48:07.527Z,18.53
2019-03-13T19:50:35.270Z,23.53
2019-03-13T19:53:03.058Z,21.23
2019-03-13T19:55:30.807Z,36.03
2019-03-13T19:57:58.693Z,78.90
2019-03-13T20:00:26.621Z,42.67
2019-03-13T20:03:00.234Z,22.40
2019-03-13T20:05:25.122Z,39.20
2019-03-13T20:07:52.892Z,19.53
2019-03-13T20:10:21.917Z,19.17
2019-03-13T20:12:49.669Z,15.73
2019-03-13T20:15:18.356Z,20.43
2019-03-13T20:17:46.146Z,16.60
2019-03-13T20:20:18.006Z,17.83
2019-03-13T20:22:46.060Z,16.10
2019-03-13T20:25:17.470Z,31.67
2019-03-13T20:27:43.989Z,23.63
2019-03-13T20:30:13.281Z,12.50
2019-03-13T20:32:41.135Z,16.90
2019-03-13T20:35:09.307Z,14.47
2019-03-13T20:37:36.947Z,14.40
2019-03-13T20:40:06.359Z,18.13
2019-03-13T20:42:34.039Z,12.53
2019-03-13T20:45:01.687Z,11.87
2019-03-13T20:47:29.585Z,17.23
2019-03-13T20:49:57.345Z,16.30
2019-03-13T20:52:25.100Z,17.13
2019-03-13T20:54:52.796Z,11.10
2019-03-13T20:57:20.648Z,11.37
2019-03-13T20:59:48.399Z,14.43
2019-03-13T21:02:16.180Z,13.37
2019-03-13T21:04:43.915Z,14.67
2019-03-13T21:07:11.804Z,18.70
2019-03-13T21:09:39.443Z,52.20
2019-03-13T21:12:07.336Z,24.93
2019-03-13T21:14:36.067Z,16.67
2019-03-13T21:17:04.123Z,27.50
2019-03-13T21:19:31.847Z,72.50
2019-03-13T21:21:59.726Z,32.00
2019-03-13T21:24:27.484Z,48.27
2019-03-13T21:26:55.253Z,27.20
2019-03-13T21:29:23.245Z,28.33
2019-03-13T21:31:50.993Z,16.07
2019-03-13T21:34:18.868Z,15.13
2019-03-13T21:36:46.611Z,13.50
2019-03-13T21:39:14.396Z,27.23
2019-03-13T21:41:42.028Z,15.00
2019-03-13T21:44:10.035Z,25.40
2019-03-13T21:46:37.789Z,16.27
2019-03-13T21:49:08.104Z,21.33
2019-03-13T21:51:34.963Z,16.90
2019-03-13T21:54:02.716Z,21.17
2019-03-13T21:56:30.397Z,14.03
2019-03-13T21:58:58.041Z,16.77
2019-03-13T22:01:25.807Z,17.27
2019-03-13T22:03:53.591Z,17.07
2019-03-13T22:06:28.528Z,19.80
2019-03-13T22:08:50.966Z,17.43
2019-03-13T22:11:18.749Z,17.80
2019-03-13T22:13:46.424Z,19.53
2019-03-13T22:16:14.161Z,20.93
2019-03-13T22:18:41.946Z,17.90
2019-03-13T22:21:09.902Z,18.50
2019-03-13T22:23:37.674Z,19.17
2019-03-13T22:26:05.735Z,20.17
2019-03-13T22:28:33.496Z,18.23
2019-03-13T22:31:02.775Z,19.47
2019-03-13T22:33:30.881Z,19.67
2019-03-13T22:35:58.648Z,18.27
2019-03-13T22:38:26.511Z,19.33
2019-03-13T22:40:54.272Z,20.30
2019-03-13T22:43:22.040Z,19.67
2019-03-13T22:45:49.796Z,18.50
2019-03-13T22:48:17.681Z,19.80
2019-03-13T22:50:45.554Z,20.13
2019-03-13T22:53:13.422Z,14.43
2019-03-13T22:55:41.472Z,21.73
2019-03-13T22:58:09.260Z,17.27
2019-03-13T23:00:56.491Z,16.83
2019-03-13T23:03:25.239Z,20.53
2019-03-13T23:05:53.070Z,21.53
2019-03-13T23:08:21.224Z,17.70
2019-03-13T23:10:48.981Z,15.70
2019-03-13T23:13:17.606Z,22.07
2019-03-13T23:15:46.347Z,18.60
2019-03-13T23:18:14.321Z,16.47
2019-03-13T23:20:42.185Z,17.87
2019-03-13T23:23:09.819Z,18.30
2019-03-13T23:25:37.638Z,21.30
2019-03-13T23:28:05.367Z,18.67
2019-03-13T23:30:33.151Z,15.87
2019-03-13T23:33:01.025Z,19.40
2019-03-13T23:35:28.883Z,18.13
2019-03-13T23:37:56.657Z,19.23
2019-03-13T23:40:24.432Z,19.93
2019-03-13T23:42:52.200Z,16.63
2019-03-13T23:45:19.960Z,18.23
2019-03-13T23:47:47.820Z,15.53
2019-03-13T23:50:15.583Z,17.13
2019-03-13T23:52:43.357Z,15.60
2019-03-13T23:55:11.229Z,16.03
2019-03-13T23:57:39.090Z,16.37
